createdAt,value
2022-08-22T00:00:14.071Z,2.42
2022-08-22T00:02:46.510Z,1.88
2022-08-22T00:03:04.491Z,2.63
2022-08-22T00:03:10.107Z,2.83
2022-08-22T00:03:10.896Z,2.20
2022-08-22T00:03:17.579Z,2.60
2022-08-22T00:05:52.266Z,2.50
2022-08-22T00:08:23.288Z,2.42
2022-08-22T00:10:54.425Z,2.78
2022-08-22T00:13:24.058Z,2.58
2022-08-22T00:15:55.261Z,3.33
2022-08-22T00:18:21.810Z,3.30
2022-08-22T00:21:06.588Z,2.80
2022-08-22T00:23:43.871Z,2.97
2022-08-22T00:26:31.595Z,2.95
2022-08-22T00:29:04.997Z,2.95
2022-08-22T00:31:35.238Z,2.95
2022-08-22T00:34:23.058Z,2.95
2022-08-22T00:37:01.729Z,2.75
2022-08-22T00:39:31.094Z,3.00
2022-08-22T00:42:07.329Z,2.97
2022-08-22T00:44:39.864Z,2.75
2022-08-22T00:47:06.349Z,2.92
2022-08-22T00:49:58.557Z,2.97
2022-08-22T00:52:28.188Z,2.83
2022-08-22T00:54:54.677Z,2.70
2022-08-22T00:57:35.218Z,2.92
2022-08-22T01:00:12.773Z,2.72
2022-08-22T01:02:40.778Z,3.00
2022-08-22T01:05:17.166Z,2.85
2022-08-22T01:07:59.427Z,2.70
2022-08-22T01:10:48.411Z,3.10
2022-08-22T01:13:22.652Z,3.00
2022-08-22T01:15:52.946Z,2.90
2022-08-22T01:18:19.461Z,2.88
2022-08-22T01:20:49.027Z,3.42
2022-08-22T01:23:31.047Z,3.08
2022-08-22T01:26:30.966Z,3.00
2022-08-22T01:29:14.576Z,3.10
2022-08-22T01:31:50.545Z,3.22
2022-08-22T01:34:23.126Z,3.20
2022-08-22T01:36:55.809Z,3.42
2022-08-22T01:39:31.329Z,2.95
2022-08-22T01:42:00.631Z,3.15
2022-08-22T01:44:43.272Z,3.45
2022-08-22T01:47:23.546Z,3.20
2022-08-22T01:49:57.433Z,3.38
2022-08-22T01:52:50.594Z,3.53
2022-08-22T01:55:32.020Z,3.30
2022-08-22T01:58:00.719Z,3.38
2022-08-22T02:00:35.284Z,3.15
2022-08-22T02:03:06.268Z,3.60
2022-08-22T02:06:02.247Z,3.60
2022-08-22T02:08:36.555Z,3.13
2022-08-22T02:11:08.653Z,3.38
2022-08-22T02:13:54.262Z,3.70
2022-08-22T02:16:41.029Z,3.80
2022-08-22T02:19:18.291Z,3.75
2022-08-22T02:21:44.799Z,3.55
2022-08-22T02:24:26.412Z,3.83
2022-08-22T02:27:04.212Z,3.60
2022-08-22T02:29:33.910Z,4.25
2022-08-22T02:32:02.610Z,4.22
2022-08-22T02:34:36.835Z,4.10
2022-08-22T02:37:09.134Z,3.85
2022-08-22T02:39:43.813Z,3.90
2022-08-22T02:42:19.556Z,3.90
2022-08-22T02:44:58.090Z,4.18
2022-08-22T02:47:40.302Z,3.95
2022-08-22T02:50:27.134Z,4.38
2022-08-22T02:52:53.721Z,3.90
2022-08-22T02:55:39.039Z,4.00
2022-08-22T02:58:10.014Z,5.13
2022-08-22T03:00:45.530Z,4.40
2022-08-22T03:03:15.836Z,4.00
2022-08-22T03:05:45.019Z,4.43
2022-08-22T03:08:26.006Z,4.78
2022-08-22T03:11:14.390Z,4.68
2022-08-22T03:13:48.577Z,4.38
2022-08-22T03:16:15.091Z,4.22
2022-08-22T03:18:48.623Z,4.95
2022-08-22T03:21:29.336Z,4.45
2022-08-22T03:23:58.183Z,4.10
2022-08-22T03:26:36.639Z,5.05
2022-08-22T03:29:05.879Z,4.10
2022-08-22T03:31:32.652Z,5.22
2022-08-22T03:34:16.350Z,4.55
2022-08-22T03:36:48.311Z,4.85
2022-08-22T03:39:22.661Z,4.40
2022-08-22T03:41:50.023Z,4.72
2022-08-22T03:44:19.514Z,4.38
2022-08-22T03:47:04.722Z,4.85
2022-08-22T03:49:48.137Z,4.80
2022-08-22T03:52:21.594Z,4.63
2022-08-22T03:54:48.618Z,4.57
2022-08-22T03:57:21.192Z,4.47
2022-08-22T04:00:10.388Z,4.60
2022-08-22T04:02:45.221Z,4.75
2022-08-22T04:05:15.163Z,4.47
2022-08-22T04:08:01.703Z,5.03
2022-08-22T04:10:29.275Z,4.68
2022-08-22T04:13:02.744Z,4.90
2022-08-22T04:15:44.336Z,4.50
2022-08-22T04:18:22.996Z,4.57
2022-08-22T04:20:52.831Z,4.93
2022-08-22T04:23:31.341Z,5.00
2022-08-22T04:26:01.698Z,5.18
2022-08-22T04:28:47.280Z,4.88
2022-08-22T04:31:15.103Z,5.60
2022-08-22T04:33:47.572Z,5.47
2022-08-22T04:36:23.254Z,5.50
2022-08-22T04:38:55.985Z,5.32
2022-08-22T04:41:25.245Z,5.20
2022-08-22T04:44:04.811Z,5.30
2022-08-22T04:46:38.918Z,6.18
2022-08-22T04:49:20.310Z,5.43
2022-08-22T04:51:52.746Z,5.35
2022-08-22T04:54:37.481Z,5.40
2022-08-22T04:57:12.898Z,5.75
2022-08-22T04:59:39.430Z,5.15
2022-08-22T05:02:08.930Z,5.82
2022-08-22T05:04:45.358Z,6.53
2022-08-22T05:07:17.571Z,6.25
2022-08-22T05:09:56.411Z,5.38
2022-08-22T05:12:33.059Z,5.50
2022-08-22T05:15:23.230Z,6.05
2022-08-22T05:17:52.084Z,5.95
2022-08-22T05:20:21.239Z,6.03
2022-08-22T05:22:51.465Z,6.50
2022-08-22T05:25:19.912Z,7.65
2022-08-22T05:27:49.316Z,7.05
2022-08-22T05:30:23.802Z,7.38
2022-08-22T05:32:57.774Z,7.53
2022-08-22T05:35:35.108Z,7.75
2022-08-22T05:38:02.764Z,6.95
2022-08-22T05:40:30.143Z,7.95
2022-08-22T05:42:57.627Z,7.30
2022-08-22T05:45:25.282Z,7.47
2022-08-22T05:48:05.326Z,7.53
2022-08-22T05:50:51.175Z,7.60
2022-08-22T05:53:17.829Z,7.97
2022-08-22T05:55:44.340Z,7.25
2022-08-22T05:58:20.270Z,7.13
2022-08-22T06:00:48.936Z,7.75
2022-08-22T06:03:25.741Z,7.13
2022-08-22T06:05:53.700Z,7.90
2022-08-22T06:08:23.451Z,8.20
2022-08-22T06:10:53.659Z,8.90
2022-08-22T06:13:32.178Z,8.13
2022-08-22T06:16:21.528Z,8.90
2022-08-22T06:18:49.262Z,9.23
2022-08-22T06:21:51.773Z,9.50
2022-08-22T06:24:26.206Z,8.48
2022-08-22T06:26:54.092Z,8.15
2022-08-22T06:29:28.127Z,8.05
2022-08-22T06:31:55.205Z,8.20
2022-08-22T06:34:31.186Z,8.38
2022-08-22T06:36:58.502Z,8.05
2022-08-22T06:39:27.670Z,7.22
2022-08-22T06:41:57.294Z,8.13
2022-08-22T06:44:26.346Z,7.50
2022-08-22T06:46:55.283Z,7.53
2022-08-22T06:49:23.385Z,6.82
2022-08-22T06:51:50.657Z,7.05
2022-08-22T06:54:19.361Z,7.15
2022-08-22T06:56:47.014Z,7.32
2022-08-22T06:59:15.670Z,7.15
2022-08-22T07:01:49.166Z,6.70
2022-08-22T07:04:15.955Z,6.78
2022-08-22T07:06:51.161Z,6.00
2022-08-22T07:09:21.165Z,6.55
2022-08-22T07:11:48.242Z,6.07
2022-08-22T07:14:17.117Z,5.75
2022-08-22T07:16:52.140Z,6.00
2022-08-22T07:19:27.062Z,6.32
2022-08-22T07:21:54.735Z,6.22
2022-08-22T07:24:24.533Z,5.43
2022-08-22T07:27:01.583Z,4.80
2022-08-22T07:29:42.572Z,5.28
2022-08-22T07:32:16.485Z,4.78
2022-08-22T07:34:56.225Z,5.03
2022-08-22T07:37:48.205Z,4.25
2022-08-22T07:40:27.545Z,4.10
2022-08-22T07:42:58.112Z,4.28
2022-08-22T07:45:32.600Z,3.72
2022-08-22T07:48:25.113Z,3.20
2022-08-22T07:51:05.697Z,3.15
2022-08-22T07:53:35.294Z,4.53
2022-08-22T07:56:02.604Z,3.97
2022-08-22T07:58:31.541Z,2.92
2022-08-22T08:00:58.417Z,2.95
2022-08-22T08:03:30.155Z,3.00
2022-08-22T08:05:57.096Z,3.17
2022-08-22T08:08:25.786Z,3.13
2022-08-22T08:10:54.483Z,3.00
2022-08-22T08:13:23.118Z,3.45
2022-08-22T08:15:50.042Z,2.70
2022-08-22T08:18:21.789Z,3.15
2022-08-22T08:20:54.900Z,2.75
2022-08-22T08:23:22.259Z,2.92
2022-08-22T08:26:00.890Z,3.63
2022-08-22T08:28:38.135Z,2.80
2022-08-22T08:31:09.581Z,2.50
2022-08-22T08:33:39.761Z,2.58
2022-08-22T08:36:25.066Z,2.47
2022-08-22T08:38:52.280Z,2.50
2022-08-22T08:41:33.948Z,2.55
2022-08-22T08:44:07.427Z,2.38
2022-08-22T08:46:55.424Z,3.40
2022-08-22T08:49:24.160Z,2.40
2022-08-22T08:51:54.198Z,2.83
2022-08-22T08:54:39.983Z,2.13
2022-08-22T08:57:26.672Z,2.60
2022-08-22T09:00:05.515Z,2.10
2022-08-22T09:02:35.016Z,2.38
2022-08-22T09:05:21.741Z,2.22
2022-08-22T09:08:04.011Z,2.60
2022-08-22T09:10:56.862Z,1.70
2022-08-22T09:13:41.866Z,1.90
2022-08-22T09:16:27.953Z,1.95
2022-08-22T09:18:54.836Z,1.70
2022-08-22T09:21:30.786Z,1.80
2022-08-22T09:24:08.110Z,1.92
2022-08-22T09:26:47.535Z,1.70
2022-08-22T09:29:35.286Z,1.70
2022-08-22T09:32:30.372Z,1.63
2022-08-22T09:35:05.502Z,1.92
2022-08-22T09:37:35.207Z,1.45
2022-08-22T09:40:34.160Z,1.50
2022-08-22T09:43:21.049Z,1.75
2022-08-22T09:46:01.845Z,1.83
2022-08-22T09:48:32.800Z,1.50
2022-08-22T09:51:28.602Z,1.65
2022-08-22T09:54:04.583Z,1.70
2022-08-22T09:56:49.885Z,1.50
2022-08-22T09:59:22.989Z,1.55
2022-08-22T10:01:58.765Z,1.70
2022-08-22T10:04:25.478Z,1.58
2022-08-22T10:07:01.708Z,1.35
2022-08-22T10:09:39.117Z,1.50
2022-08-22T10:12:12.464Z,1.70
2022-08-22T10:14:40.603Z,1.20
2022-08-22T10:17:24.364Z,1.50
2022-08-22T10:20:10.902Z,1.33
2022-08-22T10:22:55.778Z,1.70
2022-08-22T10:25:42.265Z,2.17
2022-08-22T10:28:18.534Z,2.00
2022-08-22T10:30:54.735Z,2.08
2022-08-22T10:33:29.237Z,1.63
2022-08-22T10:36:04.922Z,1.90
2022-08-22T10:38:43.932Z,2.00
2022-08-22T10:41:18.105Z,1.65
2022-08-22T10:44:04.535Z,1.90
2022-08-22T10:46:42.143Z,1.90
2022-08-22T10:49:28.413Z,1.83
2022-08-22T10:52:15.372Z,1.83
2022-08-22T10:55:01.416Z,1.70
2022-08-22T10:57:53.005Z,1.50
2022-08-22T11:00:38.541Z,1.63
2022-08-22T11:03:21.312Z,1.42
2022-08-22T11:05:50.950Z,1.60
2022-08-22T11:08:40.605Z,1.88
2022-08-22T11:11:07.210Z,1.67
2022-08-22T11:13:43.360Z,1.80
2022-08-22T11:16:13.262Z,1.90
2022-08-22T11:18:57.875Z,1.33
2022-08-22T11:21:41.668Z,2.00
2022-08-22T11:24:35.470Z,1.75
2022-08-22T11:27:25.361Z,1.70
2022-08-22T11:30:18.261Z,1.70
2022-08-22T11:32:45.450Z,1.70
2022-08-22T11:35:22.943Z,1.98
2022-08-22T11:37:53.773Z,2.25
2022-08-22T11:40:32.275Z,1.70
2022-08-22T11:43:10.643Z,1.80
2022-08-22T11:45:46.251Z,1.85
2022-08-22T11:48:17.739Z,1.60
2022-08-22T11:50:52.743Z,1.90
2022-08-22T11:53:22.667Z,1.75
2022-08-22T11:55:56.683Z,1.75
2022-08-22T12:02:38.022Z,1.70
2022-08-22T12:05:09.575Z,1.85
2022-08-22T12:07:47.390Z,1.70
2022-08-22T12:10:19.405Z,1.50
2022-08-22T12:12:53.482Z,1.70
2022-08-22T12:15:25.500Z,1.77
2022-08-22T12:18:10.973Z,1.60
2022-08-22T12:21:14.305Z,1.55
2022-08-22T12:24:00.714Z,1.77
2022-08-22T12:26:44.145Z,1.95
2022-08-22T12:29:15.623Z,1.55
2022-08-22T12:32:06.500Z,1.77
2022-08-22T12:34:43.313Z,1.98
2022-08-22T12:37:24.393Z,2.08
2022-08-22T12:40:12.225Z,2.00
2022-08-22T12:42:47.038Z,1.58
2022-08-22T12:45:16.878Z,2.22
2022-08-22T12:47:58.920Z,1.83
2022-08-22T12:50:44.620Z,1.95
2022-08-22T12:53:29.573Z,1.95
2022-08-22T12:56:03.329Z,1.58
2022-08-22T12:58:33.698Z,1.75
2022-08-22T13:01:04.763Z,2.25
2022-08-22T13:03:41.986Z,1.90
2022-08-22T13:06:27.256Z,2.17
2022-08-22T13:08:54.272Z,2.00
2022-08-22T13:11:23.688Z,1.80
2022-08-22T13:13:56.420Z,2.15
2022-08-22T13:16:24.916Z,1.92
2022-08-22T13:18:56.097Z,2.20
2022-08-22T13:21:25.803Z,1.95
2022-08-22T13:23:58.374Z,1.80
2022-08-22T13:26:32.151Z,1.73
2022-08-22T13:31:59.101Z,2.17
2022-08-22T13:34:40.074Z,2.20
2022-08-22T13:37:11.336Z,1.92
2022-08-22T13:39:41.082Z,1.92
2022-08-22T13:42:14.611Z,2.15
2022-08-22T13:44:55.940Z,1.98
2022-08-22T13:47:24.210Z,1.88
2022-08-22T13:49:51.208Z,2.20
2022-08-22T13:52:38.132Z,2.38
2022-08-22T13:55:19.748Z,2.05
2022-08-22T13:57:59.591Z,2.40
2022-08-22T14:00:35.654Z,2.33
2022-08-22T14:03:05.432Z,2.20
2022-08-22T14:05:46.752Z,2.20
2022-08-22T14:08:19.888Z,2.13
2022-08-22T14:10:52.255Z,2.30
2022-08-22T14:13:32.044Z,2.55
2022-08-22T14:16:01.673Z,2.42
2022-08-22T14:18:45.630Z,2.58
2022-08-22T14:21:40.796Z,2.20
2022-08-22T14:24:19.573Z,1.88
2022-08-22T14:26:54.414Z,1.88
2022-08-22T14:29:25.776Z,1.95
2022-08-22T14:32:04.628Z,2.17
2022-08-22T14:34:45.509Z,2.13
2022-08-22T14:37:21.029Z,2.65
2022-08-22T14:39:51.047Z,2.20
2022-08-22T14:42:22.741Z,1.77
2022-08-22T14:45:00.473Z,2.33
2022-08-22T14:47:54.016Z,2.13
2022-08-22T14:50:38.760Z,2.13
2022-08-22T14:53:20.173Z,2.20
2022-08-22T14:56:11.041Z,1.77
2022-08-22T14:58:45.760Z,1.80
2022-08-22T15:01:15.311Z,1.98
2022-08-22T15:03:42.603Z,1.70
2022-08-22T15:06:14.505Z,1.88
2022-08-22T15:08:48.205Z,1.77
2022-08-22T15:11:20.394Z,2.08
2022-08-22T15:13:53.834Z,1.90
2022-08-22T15:16:24.594Z,1.95
2022-08-22T15:18:51.733Z,1.85
2022-08-22T15:21:27.919Z,2.10
2022-08-22T15:23:56.032Z,2.00
2022-08-22T15:26:37.009Z,1.80
2022-08-22T15:29:04.347Z,1.80
2022-08-22T15:31:31.509Z,1.60
2022-08-22T15:34:11.281Z,1.75
2022-08-22T15:36:59.393Z,2.05
2022-08-22T15:39:26.833Z,1.98
2022-08-22T15:41:53.855Z,2.05
2022-08-22T15:44:33.001Z,1.70
2022-08-22T15:47:10.682Z,1.67
2022-08-22T15:49:58.521Z,2.28
2022-08-22T15:52:27.516Z,2.30
2022-08-22T15:54:54.087Z,2.45
2022-08-22T15:57:31.981Z,2.17
2022-08-22T16:00:04.983Z,1.80
2022-08-22T16:02:53.242Z,2.05
2022-08-22T16:05:25.670Z,2.30
2022-08-22T16:07:52.310Z,2.00
2022-08-22T16:10:21.863Z,2.05
2022-08-22T16:13:07.579Z,2.03
2022-08-22T16:15:51.538Z,2.28
2022-08-22T16:18:34.338Z,2.35
2022-08-22T16:21:03.442Z,2.20
2022-08-22T16:23:45.656Z,2.13
2022-08-22T16:26:19.926Z,1.88
2022-08-22T16:29:00.606Z,1.98
2022-08-22T16:31:38.068Z,1.70
2022-08-22T16:34:17.130Z,1.90
2022-08-22T16:36:50.782Z,1.90
2022-08-22T16:39:21.724Z,2.00
2022-08-22T16:41:57.412Z,1.98
2022-08-22T16:44:24.112Z,2.28
2022-08-22T16:46:53.243Z,2.10
2022-08-22T16:49:32.516Z,2.00
2022-08-22T16:52:18.363Z,2.08
2022-08-22T16:54:46.918Z,2.00
2022-08-22T17:00:09.617Z,2.15
2022-08-22T17:02:51.592Z,1.98
2022-08-22T17:05:38.803Z,1.92
2022-08-22T17:08:08.421Z,2.17
2022-08-22T17:10:42.422Z,2.25
2022-08-22T17:13:08.905Z,1.90
2022-08-22T17:15:46.264Z,2.50
2022-08-22T17:18:19.265Z,2.40
2022-08-22T17:21:26.046Z,2.25
2022-08-22T17:23:56.612Z,2.10
2022-08-22T17:26:35.301Z,2.20
2022-08-22T17:29:22.098Z,2.35
2022-08-22T17:32:02.349Z,2.00
2022-08-22T17:34:33.518Z,2.35
2022-08-22T17:37:03.057Z,2.85
2022-08-22T17:39:51.935Z,2.22
2022-08-22T17:42:22.151Z,2.40
2022-08-22T17:45:07.161Z,1.83
2022-08-22T17:47:39.916Z,2.30
2022-08-22T17:50:10.754Z,1.95
2022-08-22T17:52:46.844Z,1.88
2022-08-22T17:55:13.257Z,2.05
2022-08-22T17:57:44.581Z,2.50
2022-08-22T18:00:18.804Z,2.17
2022-08-22T18:02:58.324Z,2.08
2022-08-22T18:05:37.586Z,2.47
2022-08-22T18:08:38.198Z,2.20
2022-08-22T18:11:11.403Z,2.20
2022-08-22T18:13:42.587Z,2.40
2022-08-22T18:16:09.104Z,2.20
2022-08-22T18:18:39.004Z,1.92
2022-08-22T18:21:21.801Z,2.10
2022-08-22T18:23:52.141Z,1.90
2022-08-22T18:26:36.853Z,2.30
2022-08-22T18:29:10.391Z,2.40
2022-08-22T18:31:51.602Z,2.10
2022-08-22T18:34:18.116Z,2.20
2022-08-22T18:36:58.097Z,2.35
2022-08-22T18:39:42.634Z,2.05
2022-08-22T18:42:11.551Z,2.40
2022-08-22T18:44:39.416Z,2.55
2022-08-22T18:47:19.015Z,2.40
2022-08-22T18:49:48.256Z,2.20
2022-08-22T18:52:16.921Z,2.90
2022-08-22T18:55:02.761Z,2.55
2022-08-22T18:57:40.287Z,2.63
2022-08-22T19:00:19.064Z,2.00
2022-08-22T19:02:56.039Z,2.50
2022-08-22T19:05:25.618Z,2.50
2022-08-22T19:07:58.277Z,2.40
2022-08-22T19:10:26.915Z,2.35
2022-08-22T19:13:03.521Z,2.25
2022-08-22T19:15:33.005Z,2.30
2022-08-22T19:18:17.949Z,2.38
2022-08-22T19:21:23.001Z,2.40
2022-08-22T19:23:50.134Z,2.38
2022-08-22T19:26:20.575Z,2.70
2022-08-22T19:28:47.846Z,2.72
2022-08-22T19:31:22.360Z,2.63
2022-08-22T19:34:09.081Z,2.75
2022-08-22T19:36:36.132Z,2.97
2022-08-22T19:39:10.061Z,2.70
2022-08-22T19:41:43.734Z,2.83
2022-08-22T19:44:12.192Z,3.20
2022-08-22T19:46:40.141Z,3.45
2022-08-22T19:49:20.871Z,2.78
2022-08-22T19:51:59.685Z,2.80
2022-08-22T19:54:26.633Z,3.13
2022-08-22T19:56:53.150Z,3.13
2022-08-22T19:59:35.265Z,3.00
2022-08-22T20:02:08.924Z,2.72
2022-08-22T20:04:57.525Z,2.92
2022-08-22T20:07:48.055Z,2.85
2022-08-22T20:10:17.786Z,3.20
2022-08-22T20:12:59.478Z,3.08
2022-08-22T20:15:27.573Z,2.53
2022-08-22T20:20:55.651Z,2.55
2022-08-22T20:23:28.358Z,3.08
2022-08-22T20:25:55.976Z,2.60
2022-08-22T20:28:29.712Z,2.78
2022-08-22T20:31:05.853Z,2.70
2022-08-22T20:33:34.837Z,2.65
2022-08-22T20:36:03.574Z,2.38
2022-08-22T20:38:32.428Z,2.65
2022-08-22T20:41:11.416Z,2.53
2022-08-22T20:43:38.865Z,2.53
2022-08-22T20:46:12.556Z,2.40
2022-08-22T20:48:40.950Z,2.88
2022-08-22T20:51:09.583Z,2.97
2022-08-22T20:53:36.509Z,2.85
2022-08-22T20:56:03.295Z,2.95
2022-08-22T20:58:35.637Z,3.20
2022-08-22T21:01:05.122Z,2.92
2022-08-22T21:03:31.994Z,3.13
2022-08-22T21:06:08.853Z,2.65
2022-08-22T21:08:35.383Z,2.78
2022-08-22T21:11:22.069Z,2.60
2022-08-22T21:13:49.194Z,2.92
2022-08-22T21:16:15.763Z,2.92
2022-08-22T21:18:47.178Z,2.63
2022-08-22T21:21:24.600Z,2.70
2022-08-22T21:23:52.642Z,3.13
2022-08-22T21:26:26.228Z,3.13
2022-08-22T21:28:55.174Z,3.10
2022-08-22T21:31:23.537Z,3.00
2022-08-22T21:33:50.875Z,2.70
2022-08-22T21:36:18.815Z,2.70
2022-08-22T21:38:53.832Z,3.58
2022-08-22T21:41:24.624Z,3.00
2022-08-22T21:43:51.199Z,2.80
2022-08-22T21:46:25.061Z,2.80
2022-08-22T21:48:59.723Z,3.17
2022-08-22T21:51:40.917Z,3.08
2022-08-22T21:54:19.934Z,3.08
2022-08-22T21:56:47.043Z,3.00
2022-08-22T21:59:51.576Z,2.80
2022-08-22T22:02:25.624Z,3.17
2022-08-22T22:04:54.000Z,2.60
2022-08-22T22:07:20.504Z,2.63
2022-08-22T22:09:54.424Z,3.30
2022-08-22T22:12:21.997Z,3.00
2022-08-22T22:14:51.536Z,3.33
2022-08-22T22:17:18.978Z,3.15
2022-08-22T22:19:46.015Z,3.28
2022-08-22T22:22:12.561Z,3.22
2022-08-22T22:24:39.166Z,3.10
2022-08-22T22:27:05.764Z,2.90
2022-08-22T22:29:32.974Z,3.75
2022-08-22T22:31:59.536Z,3.40
2022-08-22T22:34:26.491Z,3.40
2022-08-22T22:36:53.626Z,3.58
2022-08-22T22:39:20.345Z,3.30
2022-08-22T22:41:47.018Z,3.70
2022-08-22T22:44:13.543Z,3.22
2022-08-22T22:46:40.116Z,3.30
2022-08-22T22:49:06.598Z,4.55
2022-08-22T22:51:33.317Z,3.50
2022-08-22T22:54:00.026Z,3.28
2022-08-22T22:56:27.410Z,3.40
2022-08-22T22:59:00.900Z,3.60
2022-08-22T23:01:58.604Z,3.95
2022-08-22T23:04:25.111Z,4.15
2022-08-22T23:06:51.653Z,3.20
2022-08-22T23:09:18.337Z,3.80
2022-08-22T23:11:44.903Z,4.15
2022-08-22T23:14:11.467Z,4.00
2022-08-22T23:16:38.911Z,3.97
2022-08-22T23:19:11.881Z,3.90
2022-08-22T23:21:38.679Z,4.03
2022-08-22T23:24:05.439Z,4.15
2022-08-22T23:26:31.954Z,3.97
2022-08-22T23:28:58.881Z,4.00
2022-08-22T23:31:30.055Z,4.15
2022-08-22T23:33:57.130Z,4.35
2022-08-22T23:36:23.950Z,5.20
2022-08-22T23:38:52.046Z,4.78
2022-08-22T23:41:19.119Z,5.13
2022-08-22T23:43:48.190Z,4.88
2022-08-22T23:46:15.387Z,5.57
2022-08-22T23:48:42.267Z,5.25
2022-08-22T23:51:13.019Z,5.10
2022-08-22T23:53:40.628Z,4.75
2022-08-22T23:56:19.799Z,5.38
2022-08-22T23:58:46.768Z,4.75
